Salzburg, Austria
Current Conditions -  °F | °C
As of 3:20 AM on Wednesday 22 Oct 2014 (Local Time) from LOWS Reporting Station
Rain Showers Rain Showers  
Wind Chill: 39°   Ceiling: 5000
Heat Index: 45°   Visibility: 6mi
Dew Point: 39°   Wind: 12mph
Humidity: 81%   Direction: 270°W
Pressure: 29.91"   Gusts: NA
Location:  47.81°N, 13.04°E
Report Text: LOWS 220120Z AUTO 27010KT 240V310 9999 -SHRA FEW034 SCT044 BKN050 07/04 Q1013
Loading
Personal Weather Stations






























Interactive Weather Map
Tropical Storm Tracking
New forecast layout! Learn more

10-Day Weather Forecast

Advertisements
Track Severe Weather on mobile